Terminal Aerodrome Forecast
Issued by NWS

Home | Current Version | Previous Version | Text Only | Print | Product List | Glossary On
Versions: 1 2 3 4 5 6 7 8 9 10 11 12 13 14 15 16 17 18 19 20 21
000
FTUS45 KPSR 202300
TAFBLH
TAF
KBLH 202320Z 2100/2124 20009KT P6SM FEW120 BKN200
     FM211300 VRB06KT P6SM VCSH FEW090 SCT120 BKN150
     FM211700 17008KT P6SM FEW090 SCT120 BKN150
     FM212100 18010G15KT P6SM VCTS SCT090CB BKN120=

USA.gov is the U.S. government's official web portal to all federal, state and local government web resources and services.